createdAt,value
2022-09-04T00:00:11.121Z,14.30
2022-09-04T00:02:52.763Z,14.40
2022-09-04T00:05:26.721Z,14.40
2022-09-04T00:08:13.545Z,14.20
2022-09-04T00:10:50.474Z,14.20
2022-09-04T00:13:22.580Z,14.20
2022-09-04T00:15:58.198Z,14.20
2022-09-04T00:18:35.214Z,14.30
2022-09-04T00:21:08.944Z,14.30
2022-09-04T00:23:42.576Z,14.30
2022-09-04T00:26:20.926Z,14.30
2022-09-04T00:28:51.515Z,14.20
2022-09-04T00:31:27.001Z,14.20
2022-09-04T00:34:07.509Z,14.20
2022-09-04T00:36:45.812Z,14.10
2022-09-04T00:39:20.123Z,14.10
2022-09-04T00:42:06.627Z,14.10
2022-09-04T00:45:00.097Z,14.10
2022-09-04T00:48:01.183Z,14.10
2022-09-04T00:51:08.335Z,14.10
2022-09-04T00:53:52.412Z,14.10
2022-09-04T00:56:54.504Z,14.20
2022-09-04T00:59:40.013Z,14.20
2022-09-04T01:02:26.527Z,14.20
2022-09-04T01:05:04.704Z,14.20
2022-09-04T01:07:47.027Z,14.20
2022-09-04T01:10:36.836Z,14.10
2022-09-04T01:13:12.929Z,14.20
2022-09-04T01:15:46.577Z,14.20
2022-09-04T01:18:23.008Z,14.20
2022-09-04T01:21:16.255Z,14.30
2022-09-04T01:24:08.833Z,14.20
2022-09-04T01:26:48.649Z,14.20
2022-09-04T01:29:27.968Z,14.20
2022-09-04T01:32:03.933Z,14.20
2022-09-04T01:34:42.314Z,14.20
2022-09-04T01:37:25.168Z,14.20
2022-09-04T01:40:04.256Z,14.30
2022-09-04T01:42:41.870Z,14.30
2022-09-04T01:45:12.301Z,14.20
2022-09-04T01:47:50.526Z,14.30
2022-09-04T01:50:24.309Z,14.30
2022-09-04T01:52:59.130Z,14.30
2022-09-04T01:55:33.671Z,14.30
2022-09-04T01:58:17.268Z,14.20
2022-09-04T02:00:57.879Z,14.10
2022-09-04T02:03:39.480Z,14.10
2022-09-04T02:06:22.822Z,14.10
2022-09-04T02:09:16.425Z,14.10
2022-09-04T02:11:58.796Z,14.10
2022-09-04T02:14:40.678Z,14.10
2022-09-04T02:17:12.500Z,14.10
2022-09-04T02:20:02.745Z,14.20
2022-09-04T02:22:42.119Z,14.10
2022-09-04T02:25:24.244Z,14.10
2022-09-04T02:28:02.563Z,14.10
2022-09-04T02:30:36.713Z,14.10
2022-09-04T02:33:10.592Z,14.10
2022-09-04T02:35:45.748Z,14.00
2022-09-04T02:38:25.110Z,14.00
2022-09-04T02:40:59.472Z,14.00
2022-09-04T02:43:45.757Z,14.00
2022-09-04T02:46:22.723Z,14.00
2022-09-04T02:49:06.754Z,14.00
2022-09-04T02:51:53.009Z,14.00
2022-09-04T02:54:36.644Z,14.00
2022-09-04T02:57:15.032Z,14.10
2022-09-04T02:59:53.079Z,14.00
2022-09-04T03:02:29.123Z,14.00
2022-09-04T03:05:04.235Z,13.90
2022-09-04T03:07:36.632Z,13.90
2022-09-04T03:10:11.852Z,13.90
2022-09-04T03:12:46.134Z,13.80
2022-09-04T03:15:20.089Z,13.80
2022-09-04T03:17:58.787Z,13.80
2022-09-04T03:20:29.205Z,13.80
2022-09-04T03:23:03.192Z,13.80
2022-09-04T03:25:55.660Z,13.70
2022-09-04T03:28:33.153Z,13.70
2022-09-04T03:31:05.299Z,13.60
2022-09-04T03:33:40.409Z,13.60
2022-09-04T03:36:14.545Z,13.60
2022-09-04T03:38:51.557Z,13.60
2022-09-04T03:41:32.965Z,13.60
2022-09-04T03:44:15.835Z,13.60
2022-09-04T03:46:56.455Z,13.60
2022-09-04T03:49:38.266Z,13.60
2022-09-04T03:52:17.506Z,13.60
2022-09-04T03:54:59.459Z,13.60
2022-09-04T03:57:41.466Z,13.70
2022-09-04T04:00:15.417Z,13.70
2022-09-04T04:02:57.609Z,13.80
2022-09-04T04:05:36.964Z,13.80
2022-09-04T04:08:37.271Z,13.80
2022-09-04T04:11:25.139Z,13.90
2022-09-04T04:14:11.836Z,13.90
2022-09-04T04:16:55.808Z,14.00
2022-09-04T04:19:39.460Z,14.00
2022-09-04T04:22:34.174Z,14.10
2022-09-04T04:25:20.134Z,14.10
2022-09-04T04:28:02.664Z,14.20
2022-09-04T04:30:44.820Z,14.30
2022-09-04T04:33:28.483Z,14.30
2022-09-04T04:36:06.277Z,14.40
2022-09-04T04:39:11.761Z,14.40
2022-09-04T04:42:20.229Z,14.40
2022-09-04T04:45:28.696Z,14.40
2022-09-04T04:48:19.398Z,14.50
2022-09-04T04:50:55.697Z,14.50
2022-09-04T04:53:33.967Z,14.50
2022-09-04T04:56:07.781Z,14.60
2022-09-04T04:58:47.977Z,14.60
2022-09-04T05:01:26.759Z,14.70
2022-09-04T05:04:07.739Z,14.80
2022-09-04T05:06:41.370Z,14.70
2022-09-04T05:09:20.474Z,14.80
2022-09-04T05:12:04.643Z,14.80
2022-09-04T05:14:40.549Z,14.80
2022-09-04T05:17:27.533Z,15.00
2022-09-04T05:20:34.430Z,15.40
2022-09-04T05:23:14.752Z,15.90
2022-09-04T05:25:52.004Z,16.20
2022-09-04T05:28:30.312Z,16.20
2022-09-04T05:31:09.326Z,16.10
2022-09-04T05:33:43.146Z,16.30
2022-09-04T05:36:17.718Z,16.90
2022-09-04T05:38:58.361Z,17.60
2022-09-04T05:41:39.183Z,18.10
2022-09-04T05:44:22.939Z,18.40
2022-09-04T05:47:05.933Z,18.60
2022-09-04T05:49:47.786Z,18.80
2022-09-04T05:52:33.795Z,19.10
2022-09-04T05:55:14.801Z,19.10
2022-09-04T05:57:55.535Z,19.20
2022-09-04T06:00:32.781Z,19.00
2022-09-04T06:03:36.875Z,18.70
2022-09-04T06:06:22.621Z,18.60
2022-09-04T06:09:24.670Z,18.20
2022-09-04T06:12:24.249Z,17.90
2022-09-04T06:15:07.997Z,17.50
2022-09-04T06:17:59.363Z,17.30
2022-09-04T06:20:44.706Z,17.40
2022-09-04T06:23:45.671Z,17.60
2022-09-04T06:26:48.348Z,18.50
2022-09-04T06:30:08.020Z,19.80
2022-09-04T06:33:25.551Z,20.80
2022-09-04T06:36:12.497Z,21.50
2022-09-04T06:38:53.198Z,22.10
2022-09-04T06:41:41.072Z,22.10
2022-09-04T06:44:16.602Z,22.70
2022-09-04T06:46:57.763Z,22.90
2022-09-04T06:49:38.114Z,23.10
2022-09-04T06:52:18.671Z,23.40
2022-09-04T06:54:59.319Z,23.00
2022-09-04T06:57:48.213Z,23.20
2022-09-04T07:00:20.076Z,23.30
2022-09-04T07:03:09.473Z,23.40
2022-09-04T07:05:52.938Z,23.60
2022-09-04T07:08:33.689Z,23.60
2022-09-04T07:11:14.841Z,23.60
2022-09-04T07:14:04.604Z,23.50
2022-09-04T07:16:41.855Z,23.70
2022-09-04T07:19:33.659Z,23.90
2022-09-04T07:22:31.982Z,24.30
2022-09-04T07:25:13.537Z,24.30
2022-09-04T07:28:11.644Z,24.60
2022-09-04T07:30:50.036Z,24.40
2022-09-04T07:33:25.627Z,24.10
2022-09-04T07:36:16.797Z,24.10
2022-09-04T07:38:53.538Z,24.00
2022-09-04T07:41:38.217Z,23.60
2022-09-04T07:44:10.989Z,23.40
2022-09-04T07:46:48.227Z,23.40
2022-09-04T07:49:23.928Z,22.90
2022-09-04T07:52:32.215Z,22.00
2022-09-04T07:55:41.687Z,21.50
2022-09-04T07:58:49.959Z,20.80
2022-09-04T08:01:51.995Z,20.70
2022-09-04T08:05:21.988Z,20.70
2022-09-04T08:08:57.240Z,20.70
2022-09-04T08:15:49.107Z,20.40
2022-09-04T08:23:00.856Z,20.60
2022-09-04T08:30:56.124Z,20.80
2022-09-04T08:34:00.319Z,20.70
2022-09-04T08:37:11.409Z,21.00
2022-09-04T08:40:43.628Z,20.90
2022-09-04T08:43:42.595Z,20.90
2022-09-04T08:47:01.498Z,21.00
2022-09-04T08:50:35.274Z,21.20
2022-09-04T08:54:12.957Z,21.20
2022-09-04T08:57:40.214Z,21.30
2022-09-04T09:00:20.078Z,21.10
2022-09-04T09:03:57.978Z,21.00
2022-09-04T09:07:24.791Z,21.20
2022-09-04T09:10:43.465Z,21.20
2022-09-04T09:14:18.800Z,21.20
2022-09-04T09:17:29.836Z,21.40
2022-09-04T09:20:22.378Z,21.60
2022-09-04T09:23:21.849Z,21.50
2022-09-04T09:26:02.199Z,21.40
2022-09-04T09:29:03.710Z,21.40
2022-09-04T09:32:38.757Z,21.50
2022-09-04T09:35:56.145Z,21.60
2022-09-04T09:39:16.914Z,21.50
2022-09-04T09:42:35.900Z,21.50
2022-09-04T09:45:55.338Z,21.60
2022-09-04T09:49:23.127Z,21.70
2022-09-04T09:52:16.729Z,21.80
2022-09-04T09:55:12.943Z,21.80
2022-09-04T10:01:48.125Z,22.10
2022-09-04T10:04:57.431Z,21.90
2022-09-04T10:08:15.451Z,21.90
2022-09-04T10:11:19.572Z,21.80
2022-09-04T10:14:25.160Z,21.80
2022-09-04T10:17:46.939Z,21.90
2022-09-04T10:20:42.251Z,22.00
2022-09-04T10:23:42.313Z,22.20
2022-09-04T10:26:39.325Z,22.30
2022-09-04T10:29:38.331Z,22.50
2022-09-04T10:32:24.093Z,22.30
2022-09-04T10:35:12.255Z,22.40
2022-09-04T10:38:18.357Z,22.40
2022-09-04T10:41:01.845Z,22.40
2022-09-04T10:43:46.686Z,22.40
2022-09-04T10:46:26.368Z,22.50
2022-09-04T10:49:17.793Z,22.70
2022-09-04T10:52:21.842Z,22.90
2022-09-04T10:55:14.868Z,23.00
2022-09-04T10:58:04.064Z,23.20
2022-09-04T11:00:51.193Z,23.30
2022-09-04T11:03:44.981Z,23.20
2022-09-04T11:06:49.374Z,23.30
2022-09-04T11:09:39.801Z,23.10
2022-09-04T11:12:35.092Z,23.00
2022-09-04T11:15:30.248Z,23.10
2022-09-04T11:18:29.183Z,23.30
2022-09-04T11:21:31.130Z,23.80
2022-09-04T11:24:42.161Z,23.80
2022-09-04T11:27:49.253Z,23.40
2022-09-04T11:30:21.860Z,23.40
2022-09-04T11:33:11.880Z,23.60
2022-09-04T11:36:24.914Z,23.70
2022-09-04T11:39:27.916Z,23.80
2022-09-04T11:42:29.293Z,23.70
2022-09-04T11:45:21.233Z,23.70
2022-09-04T11:48:25.615Z,23.80
2022-09-04T11:51:16.658Z,23.70
2022-09-04T11:54:28.067Z,24.00
2022-09-04T11:57:06.149Z,24.20
2022-09-04T12:00:08.196Z,24.10
2022-09-04T12:03:27.905Z,24.20
2022-09-04T12:06:18.755Z,24.20
2022-09-04T12:09:22.473Z,24.60
2022-09-04T12:12:16.826Z,24.60
2022-09-04T12:15:22.263Z,24.60
2022-09-04T12:18:23.561Z,24.80
2022-09-04T12:21:56.318Z,24.90
2022-09-04T12:25:19.790Z,24.90
2022-09-04T12:29:13.742Z,25.00
2022-09-04T12:32:37.107Z,24.90
2022-09-04T12:47:57.331Z,24.50
2022-09-04T12:52:09.308Z,24.60
2022-09-04T13:30:41.838Z,23.70
2022-09-04T13:33:52.388Z,24.00
2022-09-04T13:37:26.840Z,24.20
2022-09-04T13:40:22.515Z,24.40
2022-09-04T13:43:36.675Z,24.40
2022-09-04T14:26:33.858Z,24.20
2022-09-04T14:29:23.376Z,24.10
2022-09-04T14:33:07.399Z,24.10
2022-09-04T14:51:22.123Z,24.50
2022-09-04T16:41:14.647Z,23.10
2022-09-04T18:16:13.321Z,18.90
2022-09-04T18:19:22.131Z,18.80
2022-09-04T18:22:25.186Z,18.70
2022-09-04T18:24:50.784Z,18.60
2022-09-04T18:27:23.470Z,18.60
2022-09-04T18:33:25.323Z,18.70
2022-09-04T18:37:11.130Z,18.60
2022-09-04T18:37:22.287Z,18.70
2022-09-04T18:39:08.939Z,18.60
2022-09-04T18:50:26.019Z,18.60
2022-09-04T18:50:46.758Z,18.50
2022-09-04T18:50:49.354Z,18.50
2022-09-04T18:51:20.112Z,18.40
2022-09-04T18:53:53.961Z,18.30
2022-09-04T18:56:27.560Z,18.20
2022-09-04T18:59:04.281Z,18.10
2022-09-04T19:01:43.919Z,18.00
2022-09-04T19:04:36.856Z,17.90
2022-09-04T19:07:12.375Z,17.80
2022-09-04T19:09:56.789Z,17.80
2022-09-04T19:12:35.847Z,17.80
2022-09-04T19:15:42.677Z,17.90
2022-09-04T19:18:26.650Z,18.00
2022-09-04T19:21:14.762Z,18.00
2022-09-04T19:23:50.159Z,18.00
2022-09-04T19:26:26.334Z,17.90
2022-09-04T19:29:02.453Z,17.90
2022-09-04T19:31:39.357Z,18.00
2022-09-04T19:34:18.237Z,18.30
2022-09-04T19:36:55.918Z,18.60
2022-09-04T19:45:56.145Z,18.90
2022-09-04T19:46:07.336Z,19.10
2022-09-04T19:46:08.760Z,19.30
2022-09-04T19:48:26.277Z,19.50
2022-09-04T19:53:29.902Z,19.60
2022-09-04T19:53:59.192Z,19.90
2022-09-04T19:56:32.513Z,20.00
2022-09-04T19:59:12.567Z,19.90
2022-09-04T20:01:48.769Z,19.90
2022-09-04T20:04:41.225Z,19.80
2022-09-04T20:07:14.230Z,19.90
2022-09-04T20:09:47.093Z,19.70
2022-09-04T20:12:22.696Z,19.70
2022-09-04T20:14:55.217Z,19.80
2022-09-04T20:17:45.712Z,19.90
2022-09-04T20:20:21.259Z,19.90
2022-09-04T20:22:53.586Z,20.10
2022-09-04T20:25:42.767Z,20.00
2022-09-04T20:28:21.275Z,19.90
2022-09-04T20:31:28.216Z,19.80
2022-09-04T20:34:11.132Z,19.90
2022-09-04T20:36:49.205Z,19.90
2022-09-04T20:39:24.629Z,19.70
2022-09-04T20:42:00.092Z,19.70
2022-09-04T20:45:01.516Z,19.70
2022-09-04T20:52:43.429Z,19.60
2022-09-04T20:52:52.982Z,19.60
2022-09-04T20:53:28.349Z,19.50
2022-09-04T20:56:07.974Z,19.50
2022-09-04T21:03:09.941Z,19.40
2022-09-04T21:03:17.138Z,19.40
2022-09-04T21:04:47.474Z,19.30
2022-09-04T21:07:26.959Z,19.30
2022-09-04T21:10:12.352Z,19.30
2022-09-04T21:12:46.226Z,19.30
2022-09-04T21:15:21.888Z,19.40
2022-09-04T21:18:12.144Z,19.40
2022-09-04T21:21:07.248Z,19.50
2022-09-04T21:24:07.903Z,19.60
2022-09-04T21:26:58.359Z,19.60
2022-09-04T21:29:50.826Z,19.60
2022-09-04T21:32:30.962Z,19.50
2022-09-04T21:35:08.218Z,19.50
2022-09-04T21:37:47.734Z,19.40
2022-09-04T21:40:59.138Z,19.30
2022-09-04T21:44:02.487Z,19.30
2022-09-04T21:47:08.567Z,19.20
2022-09-04T21:50:12.953Z,19.30
2022-09-04T21:53:05.625Z,19.30
2022-09-04T21:59:43.880Z,19.30
2022-09-04T22:02:27.157Z,19.20
2022-09-04T22:02:43.809Z,19.20
2022-09-04T22:05:01.601Z,19.30
2022-09-04T22:12:58.735Z,19.40
2022-09-04T22:13:39.704Z,19.40
2022-09-04T22:13:50.367Z,19.40
2022-09-04T22:17:03.594Z,19.40
2022-09-04T22:20:04.046Z,19.30
2022-09-04T22:23:09.118Z,19.40
2022-09-04T22:25:47.814Z,19.20
2022-09-04T22:28:46.749Z,19.10
2022-09-04T22:31:47.591Z,19.00
2022-09-04T22:34:47.407Z,18.80
2022-09-04T22:37:37.940Z,18.60
2022-09-04T22:40:33.441Z,18.80
2022-09-04T22:43:16.616Z,18.80
2022-09-04T22:46:30.458Z,18.70
2022-09-04T22:49:48.036Z,18.80
2022-09-04T22:52:42.943Z,18.70
2022-09-04T22:56:11.161Z,18.60
2022-09-04T22:58:36.647Z,18.60
2022-09-04T23:01:22.781Z,18.60
2022-09-04T23:04:03.883Z,18.50
2022-09-04T23:13:48.667Z,18.70
2022-09-04T23:13:53.737Z,18.60
2022-09-04T23:14:01.168Z,18.70
2022-09-04T23:16:39.104Z,18.90
2022-09-04T23:22:36.840Z,18.90
2022-09-04T23:26:45.505Z,18.80
2022-09-04T23:26:53.817Z,18.80
2022-09-04T23:29:09.285Z,18.90
2022-09-04T23:32:16.264Z,19.00
2022-09-04T23:35:14.787Z,18.70
2022-09-04T23:38:02.064Z,18.30
2022-09-04T23:40:46.630Z,18.00
2022-09-04T23:44:02.443Z,17.70
2022-09-04T23:46:52.874Z,17.30
2022-09-04T23:49:53.803Z,17.10
2022-09-04T23:52:48.593Z,16.90
2022-09-04T23:55:37.270Z,17.00
2022-09-04T23:58:51.983Z,17.20
